Brookings, OR

2:46 PM PDT on March 24, 2017 (GMT -0700)
Brookings State | | Change Station

Elev 79 ft 42.05 °N, 124.28 °W | Updated 37 minutes ago

Rain
Rain
48 °F
Feels Like 48 °F
N
12
Wind Variable Wind from South
Gusts 21 mph

Today
High -- | Low -- °F
--% Chance of Precip.
Yesterday
High -- | Low -- °F
Precip. -- in
Pressure 30.07 in
Visibility 7.0 miles
Clouds Few 600 ft
Overcast 1200 ft
Dew Point 46 °F
Humidity 93%
Rainfall 1.42 in
Snow Depth Not available.
7:12 AM 7:34 PM
Waning Crescent, 13% visible
SPECI KBOK 242109Z AUTO 17010G18KT 7SM RA FEW006 OVC012 09/08 A3007 RMK AO2 P0001
Pressure 30.07 in
Visibility 7.0 miles
Clouds Few 600 ft
Overcast 1200 ft
Dew Point 46 °F
Humidity 93%
Rainfall 1.42 in
Snow Depth Not available.
7:12 AM 7:34 PM
Waning Crescent, 13% visible
SPECI KBOK 242109Z AUTO 17010G18KT 7SM RA FEW006 OVC012 09/08 A3007 RMK AO2 P0001

Get Severe Weather Alerts

Thanks for signing up!

Be on the lookout for a verification email in your inbox.

You'll start receiving the daily forecast at 8 AM.

×

10-Day Weather Forecast

Almanac

Astronomy

Mar. 24, 2017 Rise Set
Actual Time
Civil Twilight
Nautical Twilight
Astronomical Twilight
Moon
Length of Visible Light
Length of Day
Tomorrow will be .
, % of the Moon is Illuminated

Today's Extremes

State Highs State Lows

Community

WunderPhotos

Upload Photos

1,962,540 photos uploaded!

WunderBlog® & News

Nearby

Air Quality

  Air Quality AQ Index Pollutant
Not available.

Snow Depth

Station Depth Elevation

Earthquake Activity

City Distance Mag. Time & Date
Minimum magnitude displayed is 2.5.

Earthquake Activity

City Distance Mag. Time & Date
Minimum magnitude displayed is 2.5.

Coastal Water Temperatures

Place Temperature

Stations

Nearby Weather Stations

Station Location Temp. Windchill Dew Point Humidity Wind Precip. Elev Updated Type
                   

Watches & Warnings

There are currently no watches in effect.